DLH5682 OMDB-EDDF
Flight info
| Callsign | DLH5682 |
|---|---|
| Flight time | N/A |
| Altitude | 36000 |
| Route | SENPA N571 ALPOB L768 ULADA Q143 MEDGO N697 HIL A788 HLF L604 WEJ/N0492F380 L677 CVO L617 NOZ L551 ANTAR DCT AKINA DCT RIGRO DCT PEREN UL863 EVIVI DCT OKANA DCT TONDO/N0479F400 DCT ARSIN DCT BUDEX DCT IPDUL DCT RAPET T170 VAGAB/N0475F240 T170 GAPLA T178 KERAX KERAX5A |
| Aircraft | A35K/H-SDE2E3GHIJ3J4J5LM1ORWXY/LB1D1 |
Departure
| Time | N/A |
|---|---|
| Airport | Dubai International Airport (OMDB) |
Arrival
| Time | 2026-05-05 16:54 |
|---|---|
| Airport | Frankfurt Main Airport (EDDF) |
| Time | Latitude | Longitude | Altitude | Speed | Heading |
|---|---|---|---|---|---|
| 2026-05-05 16:35 | 50.33038 | 9.36388 | 14705 ft | 360 kts | 73° |
| 2026-05-05 16:35 | 50.33424 | 9.38165 | 14026 ft | 364 kts | 73° |
| 2026-05-05 16:35 | 50.34235 | 9.41959 | 12485 ft | 373 kts | 73° |
| 2026-05-05 16:36 | 50.35074 | 9.45852 | 10942 ft | 379 kts | 73° |
| 2026-05-05 16:36 | 50.35931 | 9.49762 | 9467 ft | 380 kts | 72° |
| 2026-05-05 16:36 | 50.36786 | 9.53647 | 8231 ft | 371 kts | 72° |
| 2026-05-05 16:36 | 50.37593 | 9.57292 | 8021 ft | 336 kts | 72° |
| 2026-05-05 16:37 | 50.38321 | 9.60573 | 7924 ft | 303 kts | 72° |
| 2026-05-05 16:37 | 50.38977 | 9.63538 | 7809 ft | 274 kts | 72° |
| 2026-05-05 16:37 | 50.39572 | 9.66228 | 7694 ft | 249 kts | 73° |
| 2026-05-05 16:37 | 50.40113 | 9.68685 | 7581 ft | 228 kts | 72° |
| 2026-05-05 16:38 | 50.40606 | 9.70925 | 7461 ft | 207 kts | 73° |
| 2026-05-05 16:38 | 50.41052 | 9.72940 | 7410 ft | 183 kts | 73° |
| 2026-05-05 16:38 | 50.41473 | 9.74820 | 7620 ft | 191 kts | 73° |
| 2026-05-05 16:38 | 50.41960 | 9.77062 | 7735 ft | 244 kts | 73° |
| 2026-05-05 16:39 | 50.42455 | 9.79818 | 7687 ft | 278 kts | 83° |
| 2026-05-05 16:39 | 50.42334 | 9.82853 | 7667 ft | 280 kts | 110° |
| 2026-05-05 16:39 | 50.41281 | 9.85324 | 7662 ft | 274 kts | 143° |
| 2026-05-05 16:39 | 50.39566 | 9.86464 | 7660 ft | 270 kts | 175° |
| 2026-05-05 16:40 | 50.37743 | 9.85925 | 7659 ft | 270 kts | 208° |
| 2026-05-05 16:40 | 50.36387 | 9.83919 | 7498 ft | 272 kts | 238° |
| 2026-05-05 16:40 | 50.35569 | 9.81242 | 7273 ft | 274 kts | 246° |
| 2026-05-05 16:40 | 50.34831 | 9.78497 | 7018 ft | 273 kts | 245° |
| 2026-05-05 16:41 | 50.34061 | 9.75782 | 6784 ft | 272 kts | 244° |
| 2026-05-05 16:41 | 50.33268 | 9.73105 | 6648 ft | 271 kts | 243° |
| 2026-05-05 16:41 | 50.32459 | 9.70441 | 6550 ft | 271 kts | 243° |
| 2026-05-05 16:41 | 50.31641 | 9.67792 | 6558 ft | 270 kts | 243° |
| 2026-05-05 16:42 | 50.30816 | 9.65151 | 6558 ft | 271 kts | 243° |
| 2026-05-05 16:42 | 50.29989 | 9.62510 | 6554 ft | 270 kts | 243° |
| 2026-05-05 16:42 | 50.29162 | 9.59870 | 6567 ft | 270 kts | 243° |
| 2026-05-05 16:42 | 50.28345 | 9.57264 | 6567 ft | 270 kts | 243° |
| 2026-05-05 16:43 | 50.27521 | 9.54639 | 6567 ft | 269 kts | 242° |
| 2026-05-05 16:43 | 50.26695 | 9.52013 | 6568 ft | 269 kts | 242° |
| 2026-05-05 16:43 | 50.25863 | 9.49382 | 6573 ft | 270 kts | 242° |
| 2026-05-05 16:43 | 50.25037 | 9.46768 | 6565 ft | 268 kts | 242° |
| 2026-05-05 16:44 | 50.24208 | 9.44154 | 6566 ft | 268 kts | 243° |
| 2026-05-05 16:44 | 50.23420 | 9.41524 | 6555 ft | 267 kts | 246° |
| 2026-05-05 16:44 | 50.22764 | 9.38838 | 6253 ft | 262 kts | 249° |
| 2026-05-05 16:44 | 50.22161 | 9.36209 | 6062 ft | 251 kts | 249° |
| 2026-05-05 16:45 | 50.21589 | 9.33704 | 5890 ft | 240 kts | 249° |
| 2026-05-05 16:45 | 50.21034 | 9.31273 | 5598 ft | 235 kts | 249° |
| 2026-05-05 16:45 | 50.20486 | 9.28886 | 5260 ft | 233 kts | 249° |
| 2026-05-05 16:45 | 50.19943 | 9.26527 | 4924 ft | 230 kts | 249° |
| 2026-05-05 16:46 | 50.19400 | 9.24179 | 4828 ft | 231 kts | 249° |
| 2026-05-05 16:46 | 50.18855 | 9.21818 | 4929 ft | 231 kts | 248° |
| 2026-05-05 16:46 | 50.18310 | 9.19466 | 4978 ft | 231 kts | 249° |
| 2026-05-05 16:46 | 50.17765 | 9.17113 | 4979 ft | 230 kts | 248° |
| 2026-05-05 16:47 | 50.17221 | 9.14784 | 4978 ft | 229 kts | 249° |
| 2026-05-05 16:47 | 50.16677 | 9.12452 | 4975 ft | 229 kts | 248° |
| 2026-05-05 16:47 | 50.16135 | 9.10117 | 4976 ft | 229 kts | 249° |
| 2026-05-05 16:47 | 50.15589 | 9.07781 | 4977 ft | 229 kts | 248° |
| 2026-05-05 16:48 | 50.15041 | 9.05440 | 4877 ft | 229 kts | 249° |
| 2026-05-05 16:48 | 50.14545 | 9.03088 | 4735 ft | 227 kts | 250° |
| 2026-05-05 16:48 | 50.14036 | 9.00746 | 4619 ft | 228 kts | 249° |
| 2026-05-05 16:48 | 50.13497 | 8.98422 | 4492 ft | 228 kts | 248° |
| 2026-05-05 16:49 | 50.12948 | 8.96106 | 4362 ft | 228 kts | 248° |
| 2026-05-05 16:49 | 50.12399 | 8.93799 | 4237 ft | 227 kts | 248° |
| 2026-05-05 16:49 | 50.11848 | 8.91491 | 4123 ft | 228 kts | 248° |
| 2026-05-05 16:49 | 50.11300 | 8.89191 | 4010 ft | 225 kts | 248° |
| 2026-05-05 16:50 | 50.10755 | 8.86912 | 3985 ft | 219 kts | 248° |
| 2026-05-05 16:50 | 50.10242 | 8.84763 | 3916 ft | 206 kts | 248° |
| 2026-05-05 16:50 | 50.09753 | 8.82703 | 3662 ft | 201 kts | 248° |
| 2026-05-05 16:50 | 50.09269 | 8.80679 | 3402 ft | 199 kts | 247° |
| 2026-05-05 16:51 | 50.08788 | 8.78671 | 3097 ft | 196 kts | 248° |
| 2026-05-05 16:51 | 50.08318 | 8.76697 | 2828 ft | 193 kts | 249° |
| 2026-05-05 16:51 | 50.07857 | 8.74760 | 2568 ft | 188 kts | 249° |
| 2026-05-05 16:51 | 50.07414 | 8.72907 | 2370 ft | 176 kts | 249° |
| 2026-05-05 16:52 | 50.06992 | 8.71142 | 2122 ft | 175 kts | 249° |
| 2026-05-05 16:52 | 50.06567 | 8.69365 | 1869 ft | 175 kts | 249° |
| 2026-05-05 16:52 | 50.06150 | 8.67619 | 1632 ft | 166 kts | 250° |
| 2026-05-05 16:52 | 50.05765 | 8.66008 | 1414 ft | 153 kts | 249° |
| 2026-05-05 16:53 | 50.05410 | 8.64521 | 1208 ft | 140 kts | 250° |
| 2026-05-05 16:53 | 50.05077 | 8.63128 | 1016 ft | 135 kts | 250° |
| 2026-05-05 16:53 | 50.04744 | 8.61732 | 828 ft | 140 kts | 249° |
| 2026-05-05 16:53 | 50.04403 | 8.60314 | 625 ft | 140 kts | 251° |
| 2026-05-05 16:54 | 50.04065 | 8.58907 | 479 ft | 147 kts | 250° |
| 2026-05-05 16:54 | 50.03713 | 8.57429 | 375 ft | 142 kts | 250° |
| 2026-05-05 16:54 | 50.03458 | 8.56352 | 366 ft | 49 kts | 249° |
| 2026-05-05 16:54 | 50.03365 | 8.55972 | 367 ft | 29 kts | 249° |
| 2026-05-05 16:55 | 50.03312 | 8.55722 | 357 ft | 23 kts | 262° |
| 2026-05-05 16:55 | 50.03258 | 8.55509 | 362 ft | 19 kts | 246° |
| 2026-05-05 16:55 | 50.03211 | 8.55322 | 363 ft | 18 kts | 249° |
| 2026-05-05 16:55 | 50.03179 | 8.55150 | 363 ft | 16 kts | 261° |
| 2026-05-05 16:56 | 50.03179 | 8.54965 | 355 ft | 19 kts | 279° |
| 2026-05-05 16:56 | 50.03192 | 8.54836 | 353 ft | 8 kts | 275° |
| 2026-05-05 16:56 | 50.03201 | 8.54757 | 349 ft | 7 kts | 280° |
| 2026-05-05 16:56 | 50.03204 | 8.54727 | 359 ft | 0 kts | 280° |
| 2026-05-05 16:58 | 50.03216 | 8.54668 | 358 ft | 9 kts | 292° |
| 2026-05-05 16:58 | 50.03245 | 8.54621 | 362 ft | 2 kts | 336° |
| 2026-05-05 16:58 | 50.03259 | 8.54618 | 361 ft | 8 kts | 357° |
| 2026-05-05 16:58 | 50.03301 | 8.54687 | 364 ft | 8 kts | 62° |
| 2026-05-05 16:59 | 50.03321 | 8.54760 | 366 ft | 8 kts | 66° |
| 2026-05-05 16:59 | 50.03343 | 8.54840 | 367 ft | 10 kts | 73° |
| 2026-05-05 16:59 | 50.03368 | 8.54953 | 362 ft | 14 kts | 68° |
| 2026-05-05 16:59 | 50.03408 | 8.55116 | 361 ft | 10 kts | 69° |
| 2026-05-05 17:00 | 50.03428 | 8.55200 | 365 ft | 12 kts | 70° |
| 2026-05-05 17:00 | 50.03463 | 8.55350 | 362 ft | 17 kts | 70° |
| 2026-05-05 17:00 | 50.03506 | 8.55532 | 365 ft | 18 kts | 70° |
| 2026-05-05 17:00 | 50.03549 | 8.55714 | 367 ft | 18 kts | 69° |
| 2026-05-05 17:01 | 50.03595 | 8.55902 | 371 ft | 19 kts | 69° |
| 2026-05-05 17:01 | 50.03642 | 8.56102 | 368 ft | 21 kts | 71° |
| 2026-05-05 17:01 | 50.03697 | 8.56330 | 368 ft | 23 kts | 69° |
| 2026-05-05 17:01 | 50.03757 | 8.56583 | 367 ft | 27 kts | 70° |
| 2026-05-05 17:02 | 50.03825 | 8.56865 | 364 ft | 29 kts | 70° |
| 2026-05-05 17:02 | 50.03897 | 8.57164 | 370 ft | 30 kts | 70° |
| 2026-05-05 17:02 | 50.03972 | 8.57468 | 371 ft | 31 kts | 69° |
| 2026-05-05 17:02 | 50.04028 | 8.57714 | 368 ft | 19 kts | 68° |
| 2026-05-05 17:03 | 50.04078 | 8.57918 | 364 ft | 22 kts | 70° |
| 2026-05-05 17:03 | 50.04122 | 8.58088 | 367 ft | 9 kts | 59° |
| 2026-05-05 17:03 | 50.04186 | 8.58170 | 359 ft | 16 kts | 27° |
| 2026-05-05 17:03 | 50.04263 | 8.58204 | 335 ft | 11 kts | 355° |
| 2026-05-05 17:04 | 50.04271 | 8.58201 | 334 ft | 0 kts | 348° |
| 2026-05-05 17:05 | 50.04276 | 8.58199 | 334 ft | 4 kts | 345° |
| 2026-05-05 17:06 | 50.04330 | 8.58176 | 335 ft | 11 kts | 343° |
| 2026-05-05 17:06 | 50.04408 | 8.58133 | 334 ft | 10 kts | 333° |
| 2026-05-05 17:06 | 50.04467 | 8.58098 | 350 ft | 9 kts | 341° |
| 2026-05-05 17:06 | 50.04534 | 8.58060 | 351 ft | 11 kts | 339° |
| 2026-05-05 17:07 | 50.04581 | 8.58033 | 357 ft | 11 kts | 340° |
| 2026-05-05 17:07 | 50.04606 | 8.58019 | 357 ft | 2 kts | 341° |
| 2026-05-05 17:07 | 50.04640 | 8.58001 | 357 ft | 5 kts | 341° |
| 2026-05-05 17:07 | 50.04644 | 8.57999 | 361 ft | 0 kts | 341° |
| 2026-05-05 17:09 | 50.04643 | 8.57999 | 361 ft | 0 kts | 341° |
| 2026-05-05 17:10 | 50.04644 | 8.57999 | 361 ft | 0 kts | 341° |
| 2026-05-05 17:11 | 50.04648 | 8.57997 | 351 ft | 2 kts | 341° |
| 2026-05-05 17:11 | 50.04677 | 8.57980 | 362 ft | 7 kts | 339° |
| 2026-05-05 17:11 | 50.04733 | 8.57946 | 362 ft | 11 kts | 338° |
| 2026-05-05 17:12 | 50.04771 | 8.57922 | 363 ft | 5 kts | 339° |
| 2026-05-05 17:12 | 50.04808 | 8.57895 | 364 ft | 0 kts | 328° |
| 2026-05-05 17:12 | 50.04821 | 8.57881 | 368 ft | 4 kts | 322° |
| 2026-05-05 17:12 | 50.04844 | 8.57835 | 368 ft | 6 kts | 302° |
| 2026-05-05 17:13 | 50.04855 | 8.57802 | 370 ft | 5 kts | 296° |